19:12
Airports
History
Links
Donate
Help keep this website running!
PayPal
Bitcoin
This page is community maintained. The information is intended for PC simulator navigation or reference.
Always use approved charts for navigation.
CYEV
INUVIK MIKE ZUBKO
INUVIK MIKE ZUBKO (CYEV)
Inuvik, Northwest Territories, Canada
(U)
Lat/Lng:68° 18' 13.65" N / 133° 28' 59.4" W
68.303792 / -133.483167
Elevation:224'ft / 68mMSL
ID / ICAO:CYEV
Runways:1
Longest:06-24
Asphalt 1,819m / 5,967ft
METAR19:00 GMT 2017-11-18
Altimeter: 30.23
Visibility: 10.0 statute miles
Wind: 8 knots (from 310°)
Temp: -16°c / 3°f
Humidity: 77.5%

METAR: CYEV 181900Z 31008G15KT 10SM -SN OVC024 M16/M19 A3023 RMK ST8 SLP247

(Powered by phpweather)
Airport Radio Frequencies
ATIS: 128.5
MANDATORY FREQ: 122.3
Nearby VORs <50NM
Nearby NDBs
Runway 06 / 24
Dimensions:1818.6 x 45.7m 5967' x 150'ft
Surface:Asphalt
Edge Lights:High intensity
Runway 06 [A]Runway 24 [B]
Heading:085°TH 265°TH
Lat:
Lng:
68° 18' 11.5"N
133° 30' 19"W
68° 18' 15.8"N
133° 27' 39.8"W
ALS:SSALRODALS
User Notes and Comments
68° 18' 13.65" N / 133° 28' 59.4" W
Distance To
Airport ID:
Nearby Airports
4 Aklavik 39.2 NM
CYKD W 261°
4 FORT MCPHERSON 71.5 NM
CZFM ( WX ) SSW 210°
4 TUKTOYAKTUK 78.9 NM
CYUB ( WX ) N
(C) Midway 87.5 NM
CBA4 SSW 212°
4 Eagle Plains 149.8 NM
AJ2 SSW 213°
4 Old Crow 172.5 NM
CYOC ( WX ) WSW 252°
4 FORT GOOD HOPE 192.1 NM
CYGH SE 137°
VFR Chart
Flight Planning at SkyVector.com